createdAt,value
2018-06-24T00:00:09.034Z,0
2018-06-24T00:01:18.170Z,0
2018-06-24T00:02:27.028Z,0
2018-06-24T00:03:35.890Z,0
2018-06-24T00:04:44.743Z,0
2018-06-24T00:05:53.881Z,0
2018-06-24T00:07:02.739Z,0
2018-06-24T00:08:11.875Z,0
2018-06-24T00:09:20.742Z,0
2018-06-24T00:10:29.750Z,0
2018-06-24T00:11:38.613Z,0
2018-06-24T00:12:47.751Z,0
2018-06-24T00:13:56.622Z,0
2018-06-24T00:15:05.843Z,0
2018-06-24T00:16:15.037Z,0
2018-06-24T00:17:23.897Z,0
2018-06-24T00:18:32.751Z,0
2018-06-24T00:19:41.608Z,0
2018-06-24T00:20:51.032Z,0
2018-06-24T00:21:59.937Z,0
2018-06-24T00:23:08.795Z,0
2018-06-24T00:24:17.929Z,0
2018-06-24T00:25:26.787Z,0
2018-06-24T00:26:35.647Z,0
2018-06-24T00:27:44.657Z,0
2018-06-24T00:28:53.518Z,0
2018-06-24T00:30:02.371Z,0
2018-06-24T00:31:11.231Z,0
2018-06-24T00:32:20.363Z,0
2018-06-24T00:33:29.370Z,0
2018-06-24T00:34:38.229Z,0
2018-06-24T00:35:47.085Z,0
2018-06-24T00:36:56.223Z,0
2018-06-24T00:38:05.080Z,0
2018-06-24T00:39:14.037Z,0
2018-06-24T00:40:22.896Z,0
2018-06-24T00:41:31.758Z,0
2018-06-24T00:42:40.617Z,0
2018-06-24T00:43:49.473Z,0
2018-06-24T00:44:58.957Z,0
2018-06-24T00:46:07.815Z,0
2018-06-24T00:47:16.671Z,0
2018-06-24T00:48:25.812Z,0
2018-06-24T00:49:34.670Z,0
2018-06-24T00:50:43.955Z,0
2018-06-24T00:51:53.087Z,0
2018-06-24T00:53:01.941Z,0
2018-06-24T00:54:10.799Z,0
2018-06-24T00:55:19.658Z,0
2018-06-24T00:56:28.618Z,0
2018-06-24T00:57:37.476Z,0
2018-06-24T00:58:46.334Z,0
2018-06-24T00:59:55.482Z,0
2018-06-24T01:01:04.646Z,0
2018-06-24T01:02:13.559Z,0
2018-06-24T01:03:22.410Z,0
2018-06-24T01:04:31.270Z,0
2018-06-24T01:05:40.678Z,0
2018-06-24T01:06:49.537Z,0
2018-06-24T01:07:58.395Z,0
2018-06-24T01:09:07.252Z,0
2018-06-24T01:10:16.112Z,0
2018-06-24T01:11:24.968Z,0
2018-06-24T01:12:33.823Z,0
2018-06-24T01:13:42.683Z,0
2018-06-24T01:14:52.097Z,0
2018-06-24T01:16:00.956Z,0
2018-06-24T01:17:09.814Z,0
2018-06-24T01:18:18.952Z,0
2018-06-24T01:19:27.857Z,0
2018-06-24T01:20:36.995Z,0
2018-06-24T01:21:46.126Z,0
2018-06-24T01:22:54.983Z,0
2018-06-24T01:24:03.843Z,0
2018-06-24T01:25:13.054Z,0
2018-06-24T01:26:22.187Z,0
2018-06-24T01:27:31.045Z,0
2018-06-24T01:28:40.179Z,0
2018-06-24T01:29:49.322Z,0
2018-06-24T01:30:58.803Z,0
2018-06-24T01:32:07.663Z,0
2018-06-24T01:33:16.521Z,0
2018-06-24T01:34:25.378Z,0
2018-06-24T01:35:34.235Z,0
2018-06-24T01:36:43.194Z,0
2018-06-24T01:37:52.053Z,0
2018-06-24T01:39:01.194Z,0
2018-06-24T01:40:10.611Z,0
2018-06-24T01:41:19.757Z,0
2018-06-24T01:42:28.891Z,0
2018-06-24T01:43:37.750Z,0
2018-06-24T01:44:46.608Z,0
2018-06-24T01:45:55.467Z,0
2018-06-24T01:47:04.617Z,0
2018-06-24T01:48:13.619Z,0
2018-06-24T01:49:22.476Z,0
2018-06-24T01:50:31.335Z,0
2018-06-24T01:51:40.486Z,0
2018-06-24T01:52:49.900Z,0
2018-06-24T01:53:59.186Z,0
2018-06-24T01:55:08.046Z,0
2018-06-24T01:56:17.187Z,0
2018-06-24T01:57:26.316Z,0
2018-06-24T01:58:35.728Z,0
2018-06-24T01:59:44.922Z,0
2018-06-24T02:00:53.782Z,0
2018-06-24T02:02:02.639Z,0
2018-06-24T02:03:11.772Z,0
2018-06-24T02:04:20.633Z,0
2018-06-24T02:05:29.493Z,0
2018-06-24T02:06:38.353Z,0
2018-06-24T02:07:47.211Z,0
2018-06-24T02:08:56.069Z,0
2018-06-24T02:10:04.926Z,0
2018-06-24T02:11:14.136Z,0
2018-06-24T02:12:22.991Z,0
2018-06-24T02:13:31.850Z,0
2018-06-24T02:14:40.706Z,0
2018-06-24T02:15:49.842Z,0
2018-06-24T02:16:58.749Z,0
2018-06-24T02:18:07.610Z,0
2018-06-24T02:19:17.026Z,0
2018-06-24T02:20:25.886Z,0
2018-06-24T02:21:34.743Z,0
2018-06-24T02:22:43.600Z,0
2018-06-24T02:23:52.735Z,0
2018-06-24T02:25:01.873Z,0
2018-06-24T02:26:11.009Z,0
2018-06-24T02:27:19.866Z,0
2018-06-24T02:28:29.053Z,0
2018-06-24T02:29:37.911Z,0
2018-06-24T02:30:47.379Z,0
2018-06-24T02:31:56.237Z,0
2018-06-24T02:33:05.094Z,0
2018-06-24T02:34:14.235Z,0
2018-06-24T02:35:23.653Z,0
2018-06-24T02:36:32.523Z,0
2018-06-24T02:37:41.381Z,0
2018-06-24T02:38:50.797Z,0
2018-06-24T02:40:00.044Z,0
2018-06-24T02:41:09.748Z,0
2018-06-24T02:42:18.882Z,0
2018-06-24T02:43:28.297Z,0
2018-06-24T02:44:37.446Z,0
2018-06-24T02:45:46.744Z,0
2018-06-24T02:46:55.879Z,0
2018-06-24T02:48:05.015Z,0
2018-06-24T02:49:13.869Z,0
2018-06-24T02:50:22.730Z,0
2018-06-24T02:51:31.848Z,0
2018-06-24T02:52:40.700Z,0
2018-06-24T02:53:49.932Z,0
2018-06-24T02:54:59.079Z,0
2018-06-24T02:56:08.211Z,0
2018-06-24T02:57:17.121Z,0
2018-06-24T02:58:26.254Z,0
2018-06-24T02:59:35.126Z,0
2018-06-24T03:00:44.266Z,0
2018-06-24T03:01:53.399Z,0
2018-06-24T03:03:02.385Z,0
2018-06-24T03:04:11.811Z,0
2018-06-24T03:05:20.945Z,0
2018-06-24T03:06:29.803Z,0
2018-06-24T03:07:38.941Z,0
2018-06-24T03:08:48.179Z,0
2018-06-24T03:09:57.086Z,0
2018-06-24T03:11:06.230Z,0
2018-06-24T03:12:15.092Z,0
2018-06-24T03:13:24.514Z,0
2018-06-24T03:14:34.032Z,0
2018-06-24T03:15:43.168Z,0
2018-06-24T03:16:52.027Z,0
2018-06-24T03:18:01.518Z,0
2018-06-24T03:19:10.377Z,0
2018-06-24T03:20:19.617Z,0
2018-06-24T03:21:28.766Z,0
2018-06-24T03:22:37.623Z,0
2018-06-24T03:23:46.483Z,0
2018-06-24T03:24:55.340Z,5
2018-06-24T03:26:05.100Z,5
2018-06-24T03:27:14.242Z,5
2018-06-24T03:28:23.100Z,5
2018-06-24T03:29:31.958Z,5
2018-06-24T03:30:40.818Z,5
2018-06-24T03:31:50.005Z,5
2018-06-24T03:32:59.142Z,5
2018-06-24T03:34:07.999Z,5
2018-06-24T03:35:16.866Z,5
2018-06-24T03:36:25.730Z,5
2018-06-24T03:37:35.016Z,5
2018-06-24T03:38:43.870Z,5
2018-06-24T03:39:52.726Z,10
2018-06-24T03:41:01.589Z,10
2018-06-24T03:42:10.449Z,10
2018-06-24T03:43:19.300Z,10
2018-06-24T03:44:28.157Z,10
2018-06-24T03:45:37.018Z,10
2018-06-24T03:46:46.150Z,10
2018-06-24T03:47:55.009Z,10
2018-06-24T03:49:03.869Z,10
2018-06-24T03:50:13.000Z,10
2018-06-24T03:51:21.861Z,10
2018-06-24T03:52:30.720Z,10
2018-06-24T03:53:39.572Z,10
2018-06-24T03:54:49.068Z,10
2018-06-24T03:55:57.925Z,10
2018-06-24T03:57:06.785Z,10
2018-06-24T03:58:16.195Z,10
2018-06-24T03:59:25.054Z,10
2018-06-24T04:00:34.566Z,10
2018-06-24T04:01:43.425Z,10
2018-06-24T04:02:52.284Z,10
2018-06-24T04:04:01.144Z,15
2018-06-24T04:05:10.001Z,15
2018-06-24T04:06:18.965Z,15
2018-06-24T04:07:27.823Z,15
2018-06-24T04:08:36.679Z,15
2018-06-24T04:09:45.537Z,20
2018-06-24T04:10:54.397Z,20
2018-06-24T04:12:03.303Z,25
2018-06-24T04:13:12.161Z,25
2018-06-24T04:14:21.016Z,30
2018-06-24T04:15:29.873Z,30
2018-06-24T04:16:38.733Z,30
2018-06-24T04:17:47.744Z,30
2018-06-24T04:18:56.883Z,30
2018-06-24T04:20:05.740Z,30
2018-06-24T04:21:14.599Z,30
2018-06-24T04:22:23.456Z,30
2018-06-24T04:23:32.564Z,30
2018-06-24T04:24:41.424Z,30
2018-06-24T04:25:50.607Z,35
2018-06-24T04:26:59.433Z,35
2018-06-24T04:28:08.292Z,40
2018-06-24T04:29:17.153Z,40
2018-06-24T04:30:26.011Z,45
2018-06-24T04:31:34.870Z,45
2018-06-24T04:32:43.727Z,50
2018-06-24T04:33:52.585Z,55
2018-06-24T04:35:01.869Z,60
2018-06-24T04:36:11.001Z,65
2018-06-24T04:37:20.141Z,70
2018-06-24T04:38:29.000Z,85
2018-06-24T04:39:37.859Z,95
2018-06-24T04:40:46.816Z,115
2018-06-24T04:41:55.680Z,125
2018-06-24T04:43:05.091Z,130
2018-06-24T04:44:13.949Z,130
2018-06-24T04:45:22.807Z,135
2018-06-24T04:46:31.667Z,140
2018-06-24T04:47:40.533Z,140
2018-06-24T04:48:49.393Z,135
2018-06-24T04:49:58.529Z,130
2018-06-24T04:51:07.389Z,120
2018-06-24T04:52:16.631Z,110
2018-06-24T04:53:25.489Z,105
2018-06-24T04:54:34.350Z,100
2018-06-24T04:55:43.212Z,90
2018-06-24T04:56:52.347Z,90
2018-06-24T04:58:01.485Z,80
2018-06-24T04:59:10.344Z,75
2018-06-24T05:00:19.204Z,70
2018-06-24T05:01:28.341Z,65
2018-06-24T05:02:37.471Z,55
2018-06-24T05:04:18.384Z,50
2018-06-24T05:05:28.073Z,50
2018-06-24T05:06:37.643Z,50
2018-06-24T05:07:46.502Z,50
2018-06-24T05:08:55.788Z,55
2018-06-24T05:10:04.643Z,60
2018-06-24T05:11:13.504Z,60
2018-06-24T05:12:22.362Z,60
2018-06-24T05:13:31.221Z,55
2018-06-24T05:14:40.508Z,55
2018-06-24T05:15:49.640Z,60
2018-06-24T05:16:58.503Z,60
2018-06-24T05:18:07.915Z,65
2018-06-24T05:19:16.773Z,75
2018-06-24T05:20:25.684Z,80
2018-06-24T05:21:34.543Z,85
2018-06-24T05:22:43.401Z,90
2018-06-24T05:23:52.543Z,90
2018-06-24T05:25:01.408Z,85
2018-06-24T05:26:10.368Z,90
2018-06-24T05:27:19.227Z,90
2018-06-24T05:28:28.084Z,90
2018-06-24T05:29:36.944Z,90
2018-06-24T05:30:45.804Z,85
2018-06-24T05:31:54.817Z,90
2018-06-24T05:33:03.673Z,95
2018-06-24T05:34:12.530Z,105
2018-06-24T05:35:21.388Z,105
2018-06-24T05:36:30.248Z,115
2018-06-24T05:37:39.210Z,115
2018-06-24T05:38:48.060Z,120
2018-06-24T05:39:56.917Z,130
2018-06-24T05:41:05.781Z,130
2018-06-24T05:42:14.916Z,140
2018-06-24T05:43:24.050Z,150
2018-06-24T05:44:32.909Z,140
2018-06-24T05:45:42.047Z,130
2018-06-24T05:46:50.906Z,140
2018-06-24T05:47:59.764Z,145
2018-06-24T05:49:08.898Z,150
2018-06-24T05:50:17.756Z,155
2018-06-24T05:51:26.617Z,155
2018-06-24T05:52:35.474Z,155
2018-06-24T05:53:44.610Z,150
2018-06-24T05:54:53.616Z,145
2018-06-24T05:56:02.477Z,140
2018-06-24T05:57:11.340Z,135
2018-06-24T05:58:20.198Z,140
2018-06-24T05:59:29.054Z,145
2018-06-24T06:00:38.208Z,145
2018-06-24T06:01:47.051Z,160
2018-06-24T06:02:56.270Z,155
2018-06-24T06:04:05.388Z,150
2018-06-24T06:05:14.524Z,145
2018-06-24T06:06:23.484Z,135
2018-06-24T06:07:32.344Z,130
2018-06-24T06:08:41.755Z,125
2018-06-24T06:09:50.613Z,125
2018-06-24T06:10:59.473Z,115
2018-06-24T06:12:08.685Z,105
2018-06-24T06:13:17.543Z,100
2018-06-24T06:14:26.398Z,115
2018-06-24T06:15:35.257Z,110
2018-06-24T06:16:44.115Z,90
2018-06-24T06:17:53.030Z,95
2018-06-24T06:19:01.884Z,90
2018-06-24T06:20:11.027Z,90
2018-06-24T06:21:19.896Z,105
2018-06-24T06:22:28.757Z,160
2018-06-24T06:23:37.772Z,185
2018-06-24T06:24:46.632Z,185
2018-06-24T06:25:55.494Z,195
2018-06-24T06:27:04.634Z,195
2018-06-24T06:28:13.494Z,195
2018-06-24T06:29:22.356Z,210
2018-06-24T06:30:31.215Z,240
2018-06-24T06:31:40.075Z,270
2018-06-24T06:32:48.935Z,310
2018-06-24T06:33:57.802Z,310
2018-06-24T06:35:06.756Z,305
2018-06-24T06:36:15.616Z,315
2018-06-24T06:37:24.752Z,305
2018-06-24T06:38:33.887Z,380
2018-06-24T06:39:42.743Z,395
2018-06-24T06:40:51.604Z,420
2018-06-24T06:42:00.463Z,455
2018-06-24T06:43:09.326Z,445
2018-06-24T06:44:18.190Z,435
2018-06-24T06:45:28.118Z,415
2018-06-24T06:46:37.531Z,435
2018-06-24T06:47:46.381Z,425
2018-06-24T06:48:55.242Z,425
2018-06-24T06:50:04.110Z,430
2018-06-24T06:51:13.359Z,420
2018-06-24T06:52:22.371Z,440
2018-06-24T06:53:31.236Z,450
2018-06-24T06:54:40.373Z,430
2018-06-24T06:55:49.516Z,390
2018-06-24T06:56:58.378Z,330
2018-06-24T06:58:07.289Z,315
2018-06-24T06:59:16.151Z,305
2018-06-24T07:00:25.480Z,275
2018-06-24T07:01:34.339Z,260
2018-06-24T07:02:43.480Z,280
2018-06-24T07:03:52.955Z,350
2018-06-24T07:05:02.109Z,385
2018-06-24T07:06:11.526Z,375
2018-06-24T07:07:20.389Z,370
2018-06-24T07:08:29.242Z,370
2018-06-24T07:09:38.106Z,355
2018-06-24T07:10:47.253Z,385
2018-06-24T07:11:56.393Z,390
2018-06-24T07:13:05.657Z,385
2018-06-24T07:14:14.852Z,340
2018-06-24T07:15:23.717Z,280
2018-06-24T07:16:32.855Z,230
2018-06-24T07:17:41.715Z,205
2018-06-24T07:18:50.584Z,225
2018-06-24T07:19:59.443Z,215
2018-06-24T07:21:08.307Z,215
2018-06-24T07:22:17.170Z,240
2018-06-24T07:23:26.029Z,250
2018-06-24T07:24:34.889Z,255
2018-06-24T07:25:44.313Z,250
2018-06-24T07:26:53.271Z,245
2018-06-24T07:28:02.132Z,270
2018-06-24T07:29:10.993Z,295
2018-06-24T07:30:19.858Z,300
2018-06-24T07:31:28.716Z,300
2018-06-24T07:32:38.279Z,275
2018-06-24T07:33:48.521Z,325
2018-06-24T07:34:57.508Z,330
2018-06-24T07:36:06.369Z,300
2018-06-24T07:37:15.229Z,275
2018-06-24T07:38:24.142Z,265
2018-06-24T07:39:33.558Z,240
2018-06-24T07:40:42.420Z,230
2018-06-24T07:41:51.285Z,265
2018-06-24T07:43:00.142Z,255
2018-06-24T07:44:09.379Z,240
2018-06-24T07:45:18.239Z,285
2018-06-24T07:46:27.099Z,270
2018-06-24T07:47:36.236Z,270
2018-06-24T07:48:45.099Z,280
2018-06-24T07:49:54.012Z,290
2018-06-24T07:51:02.873Z,295
2018-06-24T07:52:11.740Z,265
2018-06-24T07:53:20.599Z,310
2018-06-24T07:54:29.734Z,260
2018-06-24T07:55:38.595Z,235
2018-06-24T07:56:47.461Z,310
2018-06-24T07:57:56.597Z,310
2018-06-24T07:59:05.733Z,295
2018-06-24T08:00:14.594Z,295
2018-06-24T08:01:23.507Z,335
2018-06-24T08:02:32.379Z,310
2018-06-24T08:03:41.242Z,300
2018-06-24T08:04:50.379Z,230
2018-06-24T08:05:59.242Z,190
2018-06-24T08:07:08.151Z,165
2018-06-24T08:08:17.007Z,145
2018-06-24T08:09:25.865Z,280
2018-06-24T08:10:34.734Z,230
2018-06-24T08:11:43.865Z,270
2018-06-24T08:12:52.874Z,230
2018-06-24T08:14:01.738Z,330
2018-06-24T08:15:11.159Z,420
2018-06-24T08:16:20.021Z,510
2018-06-24T08:17:28.881Z,565
2018-06-24T08:18:38.092Z,575
2018-06-24T08:19:46.957Z,615
2018-06-24T08:20:55.821Z,650
2018-06-24T08:22:04.958Z,665
2018-06-24T08:23:13.819Z,665
2018-06-24T08:24:22.962Z,655
2018-06-24T08:25:31.822Z,655
2018-06-24T08:26:40.682Z,650
2018-06-24T08:27:49.543Z,650
2018-06-24T08:28:58.406Z,670
2018-06-24T08:30:07.540Z,660
2018-06-24T08:31:16.679Z,650
2018-06-24T08:32:25.539Z,645
2018-06-24T08:33:34.400Z,640
2018-06-24T08:34:43.540Z,670
2018-06-24T08:35:52.502Z,700
2018-06-24T08:37:01.365Z,670
2018-06-24T08:38:10.224Z,630
2018-06-24T08:39:19.367Z,590
2018-06-24T08:40:28.510Z,655
2018-06-24T08:41:37.377Z,570
2018-06-24T08:42:46.234Z,510
2018-06-24T08:43:55.093Z,345
2018-06-24T08:45:03.958Z,335
2018-06-24T08:46:12.816Z,270
2018-06-24T08:47:22.789Z,280
2018-06-24T08:48:32.454Z,250
2018-06-24T08:49:41.316Z,280
2018-06-24T08:50:50.456Z,320
2018-06-24T08:51:59.322Z,410
2018-06-24T08:53:08.181Z,450
2018-06-24T08:54:17.341Z,440
2018-06-24T08:55:26.471Z,540
2018-06-24T08:56:35.335Z,510
2018-06-24T08:57:44.198Z,425
2018-06-24T08:58:53.411Z,540
2018-06-24T09:00:02.568Z,475
2018-06-24T09:01:11.434Z,405
2018-06-24T09:02:20.291Z,405
2018-06-24T09:03:29.428Z,360
2018-06-24T09:04:38.389Z,450
2018-06-24T09:05:47.253Z,515
2018-06-24T09:06:56.390Z,560
2018-06-24T09:08:05.285Z,560
2018-06-24T09:09:14.762Z,575
2018-06-24T09:10:23.623Z,460
2018-06-24T09:11:32.485Z,455
2018-06-24T09:12:41.352Z,635
2018-06-24T09:13:50.216Z,475
2018-06-24T09:14:59.425Z,320
2018-06-24T09:16:08.731Z,325
2018-06-24T09:17:17.591Z,515
2018-06-24T09:18:26.737Z,620
2018-06-24T09:19:35.603Z,680
2018-06-24T09:20:44.465Z,640
2018-06-24T09:21:53.677Z,490
2018-06-24T09:23:02.537Z,350
2018-06-24T09:24:11.402Z,340
2018-06-24T09:25:20.262Z,325
2018-06-24T09:26:29.125Z,465
2018-06-24T09:27:38.383Z,505
2018-06-24T09:28:47.465Z,580
2018-06-24T09:29:56.322Z,580
2018-06-24T09:31:05.478Z,545
2018-06-24T09:32:14.330Z,590
2018-06-24T09:33:23.543Z,525
2018-06-24T09:34:32.401Z,760
2018-06-24T09:35:41.265Z,620
2018-06-24T09:36:50.124Z,515
2018-06-24T09:37:58.981Z,450
2018-06-24T09:39:07.941Z,475
2018-06-24T09:40:17.082Z,575
2018-06-24T09:41:26.220Z,520
2018-06-24T09:42:35.081Z,485
2018-06-24T09:43:43.944Z,395
2018-06-24T09:44:52.852Z,400
2018-06-24T09:46:01.714Z,350
2018-06-24T09:47:11.136Z,320
2018-06-24T09:48:20.009Z,395
2018-06-24T09:49:29.433Z,395
2018-06-24T09:50:38.445Z,410
2018-06-24T09:51:47.308Z,355
2018-06-24T09:52:56.480Z,390
2018-06-24T09:54:05.310Z,435
2018-06-24T09:55:14.185Z,550
2018-06-24T09:56:23.154Z,495
2018-06-24T09:57:32.012Z,680
2018-06-24T09:58:40.873Z,705
2018-06-24T09:59:50.287Z,675
2018-06-24T10:00:59.424Z,650
2018-06-24T10:02:08.286Z,660
2018-06-24T10:03:17.455Z,635
2018-06-24T10:04:26.290Z,670
2018-06-24T10:05:35.153Z,660
2018-06-24T10:06:44.021Z,615
2018-06-24T10:07:53.264Z,485
2018-06-24T10:09:02.130Z,495
2018-06-24T10:10:11.000Z,395
2018-06-24T10:11:20.506Z,410
2018-06-24T10:12:29.368Z,455
2018-06-24T10:13:38.812Z,460
2018-06-24T10:14:47.667Z,515
2018-06-24T10:15:56.531Z,620
2018-06-24T10:17:05.394Z,670
2018-06-24T10:18:14.533Z,715
2018-06-24T10:19:23.543Z,670
2018-06-24T10:20:32.403Z,500
2018-06-24T10:21:41.539Z,510
2018-06-24T10:22:50.399Z,550
2018-06-24T10:23:59.257Z,565
2018-06-24T10:25:08.474Z,730
2018-06-24T10:26:17.619Z,710
2018-06-24T10:27:26.485Z,510
2018-06-24T10:28:35.353Z,360
2018-06-24T10:29:44.491Z,275
2018-06-24T10:30:53.455Z,245
2018-06-24T10:32:02.865Z,305
2018-06-24T10:33:11.725Z,310
2018-06-24T10:34:20.591Z,330
2018-06-24T10:35:29.453Z,540
2018-06-24T10:36:38.415Z,440
2018-06-24T10:37:47.274Z,615
2018-06-24T10:38:56.134Z,815
2018-06-24T10:40:04.994Z,825
2018-06-24T10:41:14.235Z,865
2018-06-24T10:42:23.525Z,865
2018-06-24T10:43:32.391Z,925
2018-06-24T10:44:41.250Z,840
2018-06-24T10:45:50.113Z,1110
2018-06-24T10:46:58.971Z,1120
2018-06-24T10:48:07.884Z,1135
2018-06-24T10:49:16.753Z,1080
2018-06-24T10:50:25.893Z,915
2018-06-24T10:51:34.755Z,1070
2018-06-24T10:52:43.617Z,940
2018-06-24T10:53:52.764Z,850
2018-06-24T10:55:01.630Z,700
2018-06-24T10:56:10.488Z,665
2018-06-24T10:57:19.354Z,545
2018-06-24T10:58:28.218Z,735
2018-06-24T10:59:37.083Z,820
2018-06-24T11:00:45.943Z,800
2018-06-24T11:01:54.827Z,495
2018-06-24T11:03:03.950Z,275
2018-06-24T11:04:12.811Z,260
2018-06-24T11:05:21.774Z,455
2018-06-24T11:06:30.636Z,570
2018-06-24T11:07:39.499Z,730
2018-06-24T11:08:48.369Z,930
2018-06-24T11:09:58.277Z,1070
2018-06-24T11:11:07.517Z,1110
2018-06-24T11:12:16.661Z,1145
2018-06-24T11:13:25.520Z,1160
2018-06-24T11:14:34.384Z,1160
2018-06-24T11:15:43.248Z,1120
2018-06-24T11:16:52.439Z,1075
2018-06-24T11:18:01.301Z,960
2018-06-24T11:19:10.165Z,675
2018-06-24T11:20:19.027Z,320
2018-06-24T11:21:27.889Z,285
2018-06-24T11:22:36.754Z,365
2018-06-24T11:23:45.895Z,380
2018-06-24T11:24:54.758Z,410
2018-06-24T11:26:03.622Z,505
2018-06-24T11:27:12.482Z,575
2018-06-24T11:28:21.391Z,530
2018-06-24T11:29:30.253Z,590
2018-06-24T11:30:39.118Z,745
2018-06-24T11:31:47.980Z,905
2018-06-24T11:32:57.121Z,985
2018-06-24T11:34:06.412Z,1035
2018-06-24T11:35:15.271Z,1185
2018-06-24T11:36:24.133Z,1205
2018-06-24T11:37:32.995Z,1100
2018-06-24T11:38:42.134Z,985
2018-06-24T11:39:51.147Z,495
2018-06-24T11:41:00.282Z,235
2018-06-24T11:42:09.147Z,160
2018-06-24T11:43:18.012Z,180
2018-06-24T11:44:26.885Z,190
2018-06-24T11:45:36.128Z,220
2018-06-24T11:46:45.261Z,240
2018-06-24T11:47:54.211Z,285
2018-06-24T11:49:02.990Z,400
2018-06-24T11:50:11.849Z,440
2018-06-24T11:51:20.822Z,480
2018-06-24T11:52:29.963Z,595
2018-06-24T11:53:38.824Z,800
2018-06-24T11:54:47.684Z,975
2018-06-24T11:55:56.544Z,1220
2018-06-24T11:57:05.838Z,1345
2018-06-24T11:58:14.702Z,1585
2018-06-24T11:59:23.564Z,1465
2018-06-24T12:00:32.425Z,1235
2018-06-24T12:01:41.337Z,1120
2018-06-24T12:02:51.036Z,650
2018-06-24T12:03:59.909Z,400
2018-06-24T12:05:09.036Z,460
2018-06-24T12:06:17.897Z,580
2018-06-24T12:07:27.322Z,515
2018-06-24T12:08:36.682Z,360
2018-06-24T12:09:45.550Z,365
2018-06-24T12:10:54.461Z,405
2018-06-24T12:12:03.271Z,410
2018-06-24T12:13:12.136Z,475
2018-06-24T12:14:21.431Z,465
2018-06-24T12:15:30.291Z,400
2018-06-24T12:16:39.150Z,435
2018-06-24T12:17:48.013Z,375
2018-06-24T12:18:56.879Z,380
2018-06-24T12:20:06.095Z,320
2018-06-24T12:21:15.235Z,305
2018-06-24T12:22:24.102Z,480
2018-06-24T12:23:32.964Z,530
2018-06-24T12:24:42.110Z,765
2018-06-24T12:25:50.969Z,795
2018-06-24T12:26:59.832Z,705
2018-06-24T12:28:08.690Z,600
2018-06-24T12:29:17.554Z,445
2018-06-24T12:30:26.418Z,445
2018-06-24T12:31:35.433Z,525
2018-06-24T12:32:44.295Z,605
2018-06-24T12:33:53.159Z,575
2018-06-24T12:35:02.021Z,600
2018-06-24T12:36:10.884Z,470
2018-06-24T12:37:19.908Z,575
2018-06-24T12:38:28.714Z,565
2018-06-24T12:39:37.573Z,785
2018-06-24T12:40:46.714Z,720
2018-06-24T12:41:55.577Z,710
2018-06-24T12:43:05.118Z,715
2018-06-24T12:44:14.265Z,705
2018-06-24T12:45:23.404Z,770
2018-06-24T12:46:32.269Z,785
2018-06-24T12:47:41.137Z,515
2018-06-24T12:48:49.997Z,220
2018-06-24T12:49:58.858Z,205
2018-06-24T12:51:07.726Z,230
2018-06-24T12:52:16.588Z,335
2018-06-24T12:53:25.734Z,400
2018-06-24T12:54:34.871Z,390
2018-06-24T12:55:43.735Z,485
2018-06-24T12:56:52.603Z,560
2018-06-24T12:58:01.742Z,505
2018-06-24T12:59:10.827Z,420
2018-06-24T13:00:21.122Z,350
2018-06-24T13:01:29.387Z,340
2018-06-24T13:02:38.246Z,350
2018-06-24T13:03:47.106Z,355
2018-06-24T13:04:55.970Z,370
2018-06-24T13:06:05.186Z,400
2018-06-24T13:07:14.327Z,580
2018-06-24T13:08:23.187Z,740
2018-06-24T13:09:32.334Z,780
2018-06-24T13:10:41.197Z,755
2018-06-24T13:11:50.162Z,810
2018-06-24T13:12:59.300Z,805
2018-06-24T13:14:08.208Z,755
2018-06-24T13:15:17.025Z,555
2018-06-24T13:16:25.885Z,435
2018-06-24T13:17:34.800Z,385
2018-06-24T13:18:43.666Z,345
2018-06-24T13:19:52.529Z,355
2018-06-24T13:21:01.666Z,385
2018-06-24T13:22:10.524Z,300
2018-06-24T13:23:19.721Z,220
2018-06-24T13:24:28.584Z,210
2018-06-24T13:25:37.448Z,205
2018-06-24T13:26:46.387Z,165
2018-06-24T13:27:55.175Z,155
2018-06-24T13:29:04.466Z,185
2018-06-24T13:30:13.328Z,210
2018-06-24T13:31:22.191Z,220
2018-06-24T13:32:31.053Z,275
2018-06-24T13:33:39.919Z,250
2018-06-24T13:34:49.184Z,230
2018-06-24T13:35:57.991Z,205
2018-06-24T13:37:06.852Z,190
2018-06-24T13:38:15.990Z,210
2018-06-24T13:39:24.851Z,230
2018-06-24T13:40:33.764Z,260
2018-06-24T13:41:42.626Z,135
2018-06-24T13:42:51.490Z,115
2018-06-24T13:44:00.349Z,110
2018-06-24T13:45:09.487Z,135
2018-06-24T13:46:18.702Z,170
2018-06-24T13:47:27.563Z,220
2018-06-24T13:48:36.424Z,185
2018-06-24T13:49:45.284Z,150
2018-06-24T13:50:54.700Z,160
2018-06-24T13:52:03.665Z,145
2018-06-24T13:53:12.805Z,130
2018-06-24T13:54:21.666Z,190
2018-06-24T13:55:30.529Z,225
2018-06-24T13:56:39.386Z,340
2018-06-24T13:57:48.881Z,420
2018-06-24T13:58:57.746Z,400
2018-06-24T14:00:06.614Z,430
2018-06-24T14:01:15.473Z,415
2018-06-24T14:02:24.334Z,415
2018-06-24T14:03:33.195Z,380
2018-06-24T14:04:42.056Z,345
2018-06-24T14:05:50.918Z,300
2018-06-24T14:06:59.780Z,260
2018-06-24T14:08:09.290Z,270
2018-06-24T14:09:18.252Z,295
2018-06-24T14:10:27.112Z,305
2018-06-24T14:11:36.253Z,320
2018-06-24T14:12:45.116Z,310
2018-06-24T14:13:53.994Z,290
2018-06-24T14:15:03.177Z,255
2018-06-24T14:16:12.317Z,215
2018-06-24T14:17:21.458Z,195
2018-06-24T14:18:30.647Z,195
2018-06-24T14:19:39.508Z,165
2018-06-24T14:20:48.371Z,145
2018-06-24T14:21:57.230Z,170
2018-06-24T14:23:06.482Z,160
2018-06-24T14:24:15.689Z,170
2018-06-24T14:25:24.552Z,170
2018-06-24T14:26:33.565Z,140
2018-06-24T14:27:42.428Z,140
2018-06-24T14:28:51.584Z,155
2018-06-24T14:30:00.717Z,125
2018-06-24T14:31:09.578Z,110
2018-06-24T14:32:18.496Z,130
2018-06-24T14:33:27.356Z,180
2018-06-24T14:34:36.216Z,170
2018-06-24T14:35:45.084Z,180
2018-06-24T14:36:53.945Z,160
2018-06-24T14:38:03.055Z,160
2018-06-24T14:39:11.914Z,230
2018-06-24T14:40:20.774Z,230
2018-06-24T14:41:29.642Z,180
2018-06-24T14:42:38.504Z,185
2018-06-24T14:43:47.513Z,170
2018-06-24T14:44:56.375Z,140
2018-06-24T14:46:05.235Z,115
2018-06-24T14:47:14.094Z,110
2018-06-24T14:48:22.954Z,145
2018-06-24T14:49:31.816Z,160
2018-06-24T14:50:40.680Z,155
2018-06-24T14:51:49.542Z,155
2018-06-24T14:52:58.401Z,125
2018-06-24T14:54:07.262Z,155
2018-06-24T14:55:16.170Z,150
2018-06-24T14:56:25.033Z,160
2018-06-24T14:57:33.900Z,230
2018-06-24T14:58:42.755Z,260
2018-06-24T14:59:51.614Z,230
2018-06-24T15:01:00.851Z,295
2018-06-24T15:02:09.988Z,305
2018-06-24T15:03:19.399Z,320
2018-06-24T15:04:28.259Z,310
2018-06-24T15:05:37.124Z,280
2018-06-24T15:06:46.084Z,185
2018-06-24T15:07:54.945Z,165
2018-06-24T15:09:03.807Z,140
2018-06-24T15:10:12.941Z,135
2018-06-24T15:11:21.831Z,200
2018-06-24T15:12:30.941Z,220
2018-06-24T15:13:39.803Z,145
2018-06-24T15:14:48.946Z,135
2018-06-24T15:15:57.808Z,120
2018-06-24T15:17:06.668Z,90
2018-06-24T15:18:15.679Z,105
2018-06-24T15:19:24.541Z,125
2018-06-24T15:20:33.402Z,120
2018-06-24T15:21:42.261Z,120
2018-06-24T15:22:51.123Z,110
2018-06-24T15:24:00.085Z,120
2018-06-24T15:25:08.944Z,105
2018-06-24T15:26:17.803Z,115
2018-06-24T15:27:26.664Z,120
2018-06-24T15:28:35.804Z,95
2018-06-24T15:29:45.093Z,90
2018-06-24T15:30:54.232Z,95
2018-06-24T15:32:03.091Z,105
2018-06-24T15:33:11.951Z,100
2018-06-24T15:34:20.812Z,120
2018-06-24T15:35:29.728Z,145
2018-06-24T15:36:38.598Z,155
2018-06-24T15:37:47.752Z,165
2018-06-24T15:38:56.604Z,190
2018-06-24T15:40:05.471Z,320
2018-06-24T15:41:14.882Z,315
2018-06-24T15:42:24.020Z,390
2018-06-24T15:43:32.884Z,440
2018-06-24T15:44:42.302Z,375
2018-06-24T15:45:51.243Z,425
2018-06-24T15:47:00.573Z,410
2018-06-24T15:48:09.435Z,410
2018-06-24T15:49:18.301Z,405
2018-06-24T15:50:27.457Z,370
2018-06-24T15:51:36.330Z,300
2018-06-24T15:52:45.363Z,245
2018-06-24T15:53:54.222Z,200
2018-06-24T15:55:03.362Z,150
2018-06-24T15:56:12.225Z,120
2018-06-24T15:57:21.089Z,120
2018-06-24T15:58:30.319Z,110
2018-06-24T15:59:40.813Z,100
2018-06-24T16:00:50.267Z,115
2018-06-24T16:02:00.115Z,115
2018-06-24T16:03:09.269Z,110
2018-06-24T16:04:18.134Z,130
2018-06-24T16:05:27.759Z,165
2018-06-24T16:06:37.061Z,195
2018-06-24T16:07:46.253Z,180